createdAt,value
2023-04-06T00:00:29.750Z,2.30
2023-04-06T00:02:58.146Z,2.40
2023-04-06T00:05:27.771Z,2.30
2023-04-06T00:07:57.009Z,2.40
2023-04-06T00:10:25.814Z,2.40
2023-04-06T00:12:54.553Z,2.40
2023-04-06T00:15:24.585Z,2.40
2023-04-06T00:17:53.055Z,2.30
2023-04-06T00:20:21.824Z,2.20
2023-04-06T00:22:50.605Z,2.30
2023-04-06T00:25:19.466Z,2.30
2023-04-06T00:27:47.911Z,2.30
2023-04-06T00:30:16.728Z,2.30
2023-04-06T00:32:46.488Z,2.20
2023-04-06T00:35:16.073Z,2.20
2023-04-06T00:37:44.613Z,2.10
2023-04-06T00:40:13.697Z,2.10
2023-04-06T00:42:42.969Z,2.20
2023-04-06T00:45:12.527Z,2.10
2023-04-06T00:47:40.997Z,2.10
2023-04-06T00:50:12.169Z,2.00
2023-04-06T00:52:40.595Z,2.00
2023-04-06T00:55:09.639Z,2.00
2023-04-06T00:57:38.761Z,1.90
2023-04-06T01:00:08.474Z,1.80
2023-04-06T01:02:37.332Z,1.70
2023-04-06T01:05:06.504Z,1.70
2023-04-06T01:07:36.172Z,1.50
2023-04-06T01:10:05.053Z,1.30
2023-04-06T01:12:33.699Z,1.30
2023-04-06T01:15:06.009Z,1.00
2023-04-06T01:17:34.680Z,1.00
2023-04-06T01:20:04.054Z,1.00
2023-04-06T01:22:34.951Z,1.00
2023-04-06T01:25:04.173Z,1.00
2023-04-06T01:27:32.740Z,0.90
2023-04-06T01:30:01.593Z,0.90
2023-04-06T01:32:30.484Z,0.70
2023-04-06T01:34:59.172Z,0.90
2023-04-06T01:37:27.626Z,1.00
2023-04-06T01:39:58.892Z,0.90
2023-04-06T01:42:27.756Z,0.90
2023-04-06T01:44:56.413Z,1.10
2023-04-06T01:47:24.838Z,1.10
2023-04-06T01:49:53.198Z,1.10
2023-04-06T01:52:21.982Z,1.10
2023-04-06T01:54:50.641Z,1.10
2023-04-06T01:57:21.085Z,1.00
2023-04-06T01:59:49.448Z,1.00
2023-04-06T02:02:17.938Z,1.00
2023-04-06T02:04:46.446Z,1.00
2023-04-06T02:07:14.701Z,1.20
2023-04-06T02:09:43.038Z,1.20
2023-04-06T02:12:11.427Z,1.20
2023-04-06T02:14:41.353Z,0.90
2023-04-06T02:17:11.317Z,0.80
2023-04-06T02:19:39.508Z,0.90
2023-04-06T02:22:07.746Z,0.80
2023-04-06T02:24:36.588Z,0.70
2023-04-06T02:27:06.280Z,0.40
2023-04-06T02:29:37.392Z,0.40
2023-04-06T02:32:07.804Z,0.30
2023-04-06T02:34:36.066Z,0.30
2023-04-06T02:37:04.590Z,0.20
2023-04-06T02:39:33.402Z,0.30
2023-04-06T02:42:01.915Z,0.40
2023-04-06T02:44:30.355Z,0.20
2023-04-06T02:46:58.632Z,0.10
2023-04-06T02:49:28.883Z,0.10
2023-04-06T02:51:57.247Z,0.20
2023-04-06T02:54:26.033Z,-0.10
2023-04-06T02:56:54.729Z,-0.30
2023-04-06T02:59:23.617Z,-0.30
2023-04-06T03:01:52.397Z,-0.30
2023-04-06T03:04:20.806Z,-0.30
2023-04-06T03:06:51.108Z,-0.20
2023-04-06T03:09:19.513Z,-0.20
2023-04-06T03:11:47.994Z,-0.30
2023-04-06T03:14:18.345Z,-0.40
2023-04-06T03:16:46.662Z,-0.30
2023-04-06T03:19:18.181Z,-0.30
2023-04-06T03:21:46.770Z,-0.40
2023-04-06T03:24:16.710Z,-0.40
2023-04-06T03:26:45.342Z,-0.60
2023-04-06T03:29:13.688Z,-0.70
2023-04-06T03:31:42.244Z,-0.70
2023-04-06T03:34:10.619Z,-0.50
2023-04-06T03:36:38.942Z,-0.40
2023-04-06T03:39:07.670Z,-0.40
2023-04-06T03:41:40.326Z,-0.30
2023-04-06T03:44:08.819Z,-0.30
2023-04-06T03:46:37.330Z,-0.30
2023-04-06T03:49:06.236Z,-0.40
2023-04-06T03:51:35.408Z,-0.60
2023-04-06T03:54:03.886Z,-0.70
2023-04-06T03:56:32.783Z,-0.60
2023-04-06T03:59:03.520Z,-0.50
2023-04-06T04:01:31.912Z,-0.50
2023-04-06T04:04:01.240Z,-0.40
2023-04-06T04:06:29.545Z,-0.60
2023-04-06T04:08:57.860Z,-0.80
2023-04-06T04:11:26.573Z,-0.70
2023-04-06T04:13:55.982Z,-0.60
2023-04-06T04:16:26.257Z,-0.60
2023-04-06T04:18:55.096Z,-0.60
2023-04-06T04:21:23.449Z,-0.60
2023-04-06T04:23:51.876Z,-0.60
2023-04-06T04:26:20.941Z,-0.60
2023-04-06T04:28:49.684Z,-0.70
2023-04-06T04:31:19.188Z,-0.70
2023-04-06T04:33:48.917Z,-0.80
2023-04-06T04:36:17.508Z,-0.70
2023-04-06T04:38:46.176Z,-0.60
2023-04-06T04:41:14.452Z,-0.60
2023-04-06T04:43:43.743Z,-0.70
2023-04-06T04:46:12.514Z,-0.60
2023-04-06T04:48:41.242Z,-0.80
2023-04-06T04:51:10.961Z,-0.80
2023-04-06T04:53:39.249Z,-0.90
2023-04-06T04:56:08.740Z,-0.80
2023-04-06T04:58:37.086Z,-0.90
2023-04-06T05:01:05.722Z,-0.90
2023-04-06T05:03:36.698Z,-0.80
2023-04-06T05:06:05.730Z,-1.00
2023-04-06T05:08:36.233Z,-1.10
2023-04-06T05:11:05.451Z,-1.00
2023-04-06T05:13:34.856Z,-0.90
2023-04-06T05:16:03.348Z,-1.00
2023-04-06T05:18:31.736Z,-1.10
2023-04-06T05:20:59.979Z,-1.00
2023-04-06T05:23:28.294Z,-0.80
2023-04-06T05:25:58.286Z,-0.80
2023-04-06T05:28:26.933Z,-0.60
2023-04-06T05:30:58.984Z,-0.60
2023-04-06T05:33:30.103Z,-0.40
2023-04-06T05:36:01.849Z,-0.20
2023-04-06T05:38:30.476Z,0.00
2023-04-06T05:41:00.104Z,0.00
2023-04-06T05:43:28.522Z,-0.10
2023-04-06T05:45:56.809Z,0.20
2023-04-06T05:48:25.304Z,0.20
2023-04-06T05:50:54.089Z,0.30
2023-04-06T05:53:22.916Z,0.30
2023-04-06T05:55:51.457Z,0.40
2023-04-06T05:58:21.763Z,0.70
2023-04-06T06:00:53.026Z,0.80
2023-04-06T06:03:23.738Z,1.00
2023-04-06T06:05:52.342Z,1.10
2023-04-06T06:08:20.727Z,1.10
2023-04-06T06:10:49.144Z,1.20
2023-04-06T06:13:17.631Z,1.30
2023-04-06T06:15:47.525Z,1.40
2023-04-06T06:18:16.396Z,1.50
2023-04-06T06:20:45.110Z,1.90
2023-04-06T06:23:13.643Z,2.20
2023-04-06T06:25:42.046Z,2.50
2023-04-06T06:28:10.578Z,2.50
2023-04-06T06:30:38.895Z,2.60
2023-04-06T06:33:09.029Z,2.70
2023-04-06T06:35:37.464Z,3.00
2023-04-06T06:38:06.750Z,3.20
2023-04-06T06:40:36.879Z,3.30
2023-04-06T06:43:05.692Z,3.40
2023-04-06T06:45:36.983Z,3.40
2023-04-06T06:48:05.675Z,3.40
2023-04-06T06:50:35.643Z,3.40
2023-04-06T06:53:04.136Z,3.50
2023-04-06T06:55:32.538Z,3.80
2023-04-06T06:58:01.318Z,3.80
2023-04-06T07:00:29.754Z,4.00
2023-04-06T07:02:58.530Z,4.20
2023-04-06T07:05:29.147Z,4.40
2023-04-06T07:07:59.434Z,4.70
2023-04-06T07:10:28.934Z,4.90
2023-04-06T07:12:57.505Z,5.00
2023-04-06T07:15:26.485Z,5.20
2023-04-06T07:17:55.898Z,5.60
2023-04-06T07:20:24.804Z,5.80
2023-04-06T07:22:53.312Z,5.80
2023-04-06T07:25:25.235Z,6.00
2023-04-06T07:27:54.198Z,6.10
2023-04-06T07:30:23.393Z,6.30
2023-04-06T07:32:52.266Z,6.70
2023-04-06T07:35:21.105Z,6.90
2023-04-06T07:37:49.444Z,7.10
2023-04-06T07:40:17.944Z,7.10
2023-04-06T07:42:47.764Z,7.50
2023-04-06T07:45:16.911Z,7.60
2023-04-06T07:47:45.478Z,7.30
2023-04-06T07:50:14.513Z,7.80
2023-04-06T07:52:43.093Z,8.00
2023-04-06T07:55:12.077Z,8.20
2023-04-06T07:57:40.395Z,8.50
2023-04-06T08:00:14.265Z,9.10
2023-04-06T08:02:43.415Z,9.10
2023-04-06T08:05:12.275Z,9.40
2023-04-06T08:07:42.671Z,9.50
2023-04-06T08:10:12.279Z,9.80
2023-04-06T08:12:41.459Z,9.60
2023-04-06T08:15:12.106Z,10.20
2023-04-06T08:17:40.770Z,10.70
2023-04-06T08:20:10.056Z,10.80
2023-04-06T08:22:38.634Z,11.20
2023-04-06T08:25:08.087Z,11.60
2023-04-06T08:27:36.556Z,12.30
2023-04-06T08:30:05.602Z,12.60
2023-04-06T08:32:35.939Z,12.60
2023-04-06T08:35:04.974Z,13.00
2023-04-06T08:37:33.843Z,13.00
2023-04-06T08:40:02.191Z,12.60
2023-04-06T08:42:33.967Z,11.60
2023-04-06T08:45:02.788Z,10.90
2023-04-06T08:47:31.333Z,9.70
2023-04-06T08:50:04.304Z,9.70
2023-04-06T08:52:34.460Z,10.00
2023-04-06T08:55:03.122Z,10.80
2023-04-06T08:57:32.325Z,11.30
2023-04-06T09:00:02.663Z,11.30
2023-04-06T09:02:32.163Z,10.80
2023-04-06T09:05:03.781Z,11.10
2023-04-06T09:07:33.116Z,11.10
2023-04-06T09:10:01.446Z,10.50
2023-04-06T09:12:31.192Z,10.70
2023-04-06T09:15:01.067Z,11.00
2023-04-06T09:17:30.960Z,10.80
2023-04-06T09:20:01.579Z,10.90
2023-04-06T09:22:38.580Z,10.60
2023-04-06T09:25:08.679Z,10.10
2023-04-06T09:27:38.645Z,10.70
2023-04-06T09:30:11.553Z,11.10
2023-04-06T09:32:50.825Z,11.50
2023-04-06T09:35:22.200Z,12.50
2023-04-06T09:37:52.844Z,12.50
2023-04-06T09:40:23.171Z,12.50
2023-04-06T09:42:53.543Z,13.50
2023-04-06T09:45:22.265Z,14.00
2023-04-06T09:47:52.835Z,13.80
2023-04-06T09:50:24.266Z,14.90
2023-04-06T09:52:55.588Z,14.50
2023-04-06T09:55:29.574Z,14.30
2023-04-06T09:58:07.658Z,14.50
2023-04-06T10:00:45.392Z,13.90
2023-04-06T10:03:23.203Z,15.20
2023-04-06T10:05:59.693Z,14.20
2023-04-06T10:08:33.137Z,13.80
2023-04-06T10:11:02.811Z,12.90
2023-04-06T10:13:32.602Z,14.20
2023-04-06T10:16:05.038Z,14.20
2023-04-06T10:18:33.982Z,13.80
2023-04-06T10:21:09.225Z,13.60
2023-04-06T10:23:42.095Z,13.40
2023-04-06T10:26:17.420Z,13.80
2023-04-06T10:28:47.557Z,13.60
2023-04-06T10:31:16.247Z,13.40
2023-04-06T10:33:55.477Z,13.40
2023-04-06T10:36:27.508Z,12.40
2023-04-06T10:39:00.360Z,12.70
2023-04-06T10:41:36.007Z,14.00
2023-04-06T10:44:04.941Z,15.10
2023-04-06T10:46:35.277Z,14.60
2023-04-06T10:49:14.070Z,14.70
2023-04-06T10:51:43.697Z,15.20
2023-04-06T10:54:16.095Z,14.80
2023-04-06T10:56:44.646Z,14.70
2023-04-06T10:59:13.352Z,14.50
2023-04-06T11:01:47.070Z,14.10
2023-04-06T11:04:19.069Z,14.50
2023-04-06T11:06:51.226Z,14.90
2023-04-06T11:09:40.709Z,14.50
2023-04-06T11:12:09.766Z,15.40
2023-04-06T11:14:38.206Z,14.80
2023-04-06T11:17:07.345Z,14.30
2023-04-06T11:19:36.892Z,14.60
2023-04-06T11:22:10.508Z,14.80
2023-04-06T11:24:39.479Z,14.10
2023-04-06T11:27:08.818Z,13.00
2023-04-06T11:29:44.202Z,14.50
2023-04-06T11:32:12.576Z,15.10
2023-04-06T11:34:42.021Z,16.50
2023-04-06T11:37:13.228Z,15.50
2023-04-06T11:39:42.805Z,14.40
2023-04-06T11:42:11.478Z,15.50
2023-04-06T11:44:41.200Z,15.70
2023-04-06T11:47:11.722Z,16.20
2023-04-06T11:49:42.476Z,16.70
2023-04-06T11:52:19.763Z,16.70
2023-04-06T11:54:49.067Z,16.20
2023-04-06T11:57:17.759Z,15.20
2023-04-06T11:59:46.819Z,14.90
2023-04-06T12:02:15.295Z,14.90
2023-04-06T12:04:46.871Z,15.50
2023-04-06T12:15:20.057Z,15.50
2023-04-06T12:17:48.549Z,15.80
2023-04-06T12:20:26.002Z,15.90
2023-04-06T12:22:55.217Z,16.30
2023-04-06T12:25:32.352Z,16.10
2023-04-06T12:28:01.792Z,16.00
2023-04-06T12:30:31.550Z,16.30
2023-04-06T12:33:00.042Z,16.00
2023-04-06T12:35:28.724Z,15.40
2023-04-06T12:37:57.158Z,13.80
2023-04-06T12:40:25.576Z,14.00
2023-04-06T12:42:53.978Z,14.40
2023-04-06T12:45:22.266Z,14.70
2023-04-06T12:47:54.048Z,14.20
2023-04-06T12:50:22.297Z,13.70
2023-04-06T12:52:51.131Z,13.60
2023-04-06T12:55:19.891Z,13.90
2023-04-06T12:57:55.028Z,13.40
2023-04-06T13:00:25.576Z,13.40
2023-04-06T13:02:55.586Z,13.20
2023-04-06T13:05:24.017Z,13.10
2023-04-06T13:07:52.414Z,13.60
2023-04-06T13:10:20.878Z,13.70
2023-04-06T13:12:49.817Z,13.80
2023-04-06T13:15:18.842Z,14.30
2023-04-06T13:17:47.485Z,14.10
2023-04-06T13:20:17.685Z,13.00
2023-04-06T13:22:46.504Z,13.00
2023-04-06T13:25:14.831Z,13.60
2023-04-06T13:27:47.186Z,13.40
2023-04-06T13:30:17.844Z,13.50
2023-04-06T13:32:46.392Z,14.10
2023-04-06T13:35:16.385Z,14.00
2023-04-06T13:37:45.002Z,13.70
2023-04-06T13:40:14.456Z,13.60
2023-04-06T13:42:45.000Z,13.90
2023-04-06T13:45:13.582Z,14.00
2023-04-06T13:47:42.237Z,13.70
2023-04-06T13:50:11.412Z,14.10
2023-04-06T13:52:41.079Z,14.50
2023-04-06T13:55:10.025Z,14.30
2023-04-06T13:57:38.826Z,14.00
2023-04-06T14:00:08.520Z,14.10
2023-04-06T14:02:37.196Z,13.80
2023-04-06T14:05:05.962Z,13.60
2023-04-06T14:07:34.518Z,13.30
2023-04-06T14:10:04.639Z,13.40
2023-04-06T14:12:33.204Z,13.50
2023-04-06T14:15:01.572Z,13.60
2023-04-06T14:17:29.761Z,13.70
2023-04-06T14:19:58.068Z,13.30
2023-04-06T14:22:27.079Z,13.20
2023-04-06T14:24:55.584Z,13.10
2023-04-06T14:27:25.449Z,13.10
2023-04-06T14:29:54.685Z,13.10
2023-04-06T14:32:23.997Z,13.10
2023-04-06T14:34:52.915Z,13.10
2023-04-06T14:37:22.255Z,13.20
2023-04-06T14:39:50.500Z,13.10
2023-04-06T14:42:19.110Z,13.30
2023-04-06T14:44:49.766Z,13.30
2023-04-06T14:47:22.460Z,13.20
2023-04-06T14:49:52.888Z,12.90
2023-04-06T14:52:21.402Z,12.90
2023-04-06T14:54:49.541Z,12.90
2023-04-06T14:57:17.744Z,12.70
2023-04-06T14:59:46.320Z,12.60
2023-04-06T15:02:16.701Z,12.60
2023-04-06T15:04:45.349Z,12.50
2023-04-06T15:07:13.605Z,12.60
2023-04-06T15:09:42.005Z,12.50
2023-04-06T15:12:10.290Z,12.40
2023-04-06T15:14:38.576Z,12.70
2023-04-06T15:17:07.108Z,12.70
2023-04-06T15:19:37.218Z,12.60
2023-04-06T15:22:06.758Z,12.60
2023-04-06T15:24:36.138Z,12.50
2023-04-06T15:27:04.460Z,12.30
2023-04-06T15:29:32.797Z,12.30
2023-04-06T15:32:00.956Z,12.20
2023-04-06T15:34:31.363Z,12.20
2023-04-06T15:37:04.843Z,12.10
2023-04-06T15:39:33.396Z,12.10
2023-04-06T15:42:01.863Z,12.10
2023-04-06T15:44:30.040Z,12.00
2023-04-06T15:46:58.161Z,12.00
2023-04-06T15:49:26.498Z,12.00
2023-04-06T15:51:54.606Z,12.00
2023-04-06T15:54:26.969Z,12.00
2023-04-06T15:56:55.214Z,11.80
2023-04-06T15:59:23.378Z,11.80
2023-04-06T16:01:53.525Z,11.70
2023-04-06T16:04:22.408Z,11.70
2023-04-06T16:06:50.683Z,11.70
2023-04-06T16:09:18.909Z,11.60
2023-04-06T16:11:48.640Z,11.60
2023-04-06T16:14:19.920Z,11.50
2023-04-06T16:16:51.155Z,11.50
2023-04-06T16:19:20.411Z,11.40
2023-04-06T16:21:48.731Z,11.30
2023-04-06T16:24:17.415Z,11.30
2023-04-06T16:26:46.535Z,11.30
2023-04-06T16:29:17.233Z,11.30
2023-04-06T16:31:47.871Z,11.20
2023-04-06T16:34:16.358Z,11.10
2023-04-06T16:36:44.527Z,11.10
2023-04-06T16:39:12.908Z,11.00
2023-04-06T16:41:41.237Z,10.90
2023-04-06T16:44:11.001Z,10.90
2023-04-06T16:46:41.760Z,11.00
2023-04-06T16:49:10.064Z,11.00
2023-04-06T16:51:38.420Z,11.00
2023-04-06T16:54:06.706Z,10.90
2023-04-06T16:56:35.039Z,10.90
2023-04-06T16:59:03.538Z,10.80
2023-04-06T17:01:31.875Z,10.80
2023-04-06T17:04:02.045Z,10.70
2023-04-06T17:06:31.131Z,10.70
2023-04-06T17:09:00.740Z,10.70
2023-04-06T17:11:36.120Z,10.60
2023-04-06T17:14:14.760Z,10.50
2023-04-06T17:16:43.020Z,10.50
2023-04-06T17:19:12.825Z,10.40
2023-04-06T17:21:42.132Z,10.30
2023-04-06T17:24:11.024Z,10.20
2023-04-06T17:26:40.492Z,10.30
2023-04-06T17:29:08.735Z,10.10
2023-04-06T17:31:37.098Z,10.10
2023-04-06T17:34:05.884Z,10.20
2023-04-06T17:36:35.569Z,10.20
2023-04-06T17:39:03.901Z,10.00
2023-04-06T17:41:34.449Z,9.80
2023-04-06T17:44:02.722Z,9.70
2023-04-06T17:46:31.121Z,9.60
2023-04-06T17:48:59.351Z,9.40
2023-04-06T17:51:27.853Z,9.10
2023-04-06T17:53:58.057Z,9.20
2023-04-06T17:56:27.797Z,9.00
2023-04-06T17:58:58.989Z,9.00
2023-04-06T18:01:35.674Z,8.70
2023-04-06T18:04:26.348Z,8.80
2023-04-06T18:07:16.936Z,8.90
2023-04-06T18:09:52.652Z,8.90
2023-04-06T18:15:41.768Z,8.60
2023-04-06T18:18:10.312Z,8.20
2023-04-06T18:20:41.884Z,8.30
2023-04-06T18:23:10.768Z,8.40
2023-04-06T18:25:41.631Z,8.30
2023-04-06T18:28:10.718Z,8.20
2023-04-06T18:30:39.158Z,8.20
2023-04-06T18:33:07.885Z,7.80
2023-04-06T18:35:36.939Z,7.70
2023-04-06T18:38:05.518Z,7.50
2023-04-06T18:40:35.857Z,7.60
2023-04-06T18:43:07.169Z,7.80
2023-04-06T18:45:38.671Z,7.80
2023-04-06T18:48:07.828Z,7.60
2023-04-06T18:50:36.251Z,7.60
2023-04-06T18:53:04.804Z,7.40
2023-04-06T18:55:34.448Z,7.40
2023-04-06T18:58:03.011Z,7.30
2023-04-06T19:00:32.946Z,6.90
2023-04-06T19:03:02.363Z,7.10
2023-04-06T19:05:30.901Z,7.10
2023-04-06T19:07:59.292Z,7.20
2023-04-06T19:10:29.574Z,7.30
2023-04-06T19:12:58.573Z,7.40
2023-04-06T19:15:26.816Z,7.40
2023-04-06T19:17:56.470Z,7.30
2023-04-06T19:20:24.761Z,7.20
2023-04-06T19:25:26.654Z,7.30
2023-04-06T19:27:55.335Z,6.90
2023-04-06T19:30:24.475Z,6.90
2023-04-06T19:32:53.039Z,7.00
2023-04-06T19:35:23.133Z,7.00
2023-04-06T19:37:51.571Z,7.00
2023-04-06T19:40:19.764Z,7.10
2023-04-06T19:42:48.232Z,7.10
2023-04-06T19:45:16.503Z,7.00
2023-04-06T19:47:44.807Z,6.80
2023-04-06T19:50:13.113Z,6.60
2023-04-06T19:52:42.804Z,6.70
2023-04-06T19:55:11.684Z,6.80
2023-04-06T19:57:40.108Z,6.80
2023-04-06T20:00:09.670Z,6.70
2023-04-06T20:02:44.433Z,6.70
2023-04-06T20:05:15.939Z,6.70
2023-04-06T20:07:45.867Z,6.60
2023-04-06T20:10:15.427Z,6.70
2023-04-06T20:12:44.197Z,6.70
2023-04-06T20:15:13.474Z,6.90
2023-04-06T20:17:42.845Z,7.00
2023-04-06T20:20:12.697Z,6.90
2023-04-06T20:22:42.950Z,6.70
2023-04-06T20:25:20.289Z,6.60
2023-04-06T20:28:00.885Z,6.50
2023-04-06T20:30:34.075Z,6.40
2023-04-06T20:33:02.799Z,6.30
2023-04-06T20:35:31.849Z,6.40
2023-04-06T20:38:00.275Z,6.40
2023-04-06T20:40:30.501Z,6.40
2023-04-06T20:42:58.843Z,6.30
2023-04-06T20:45:27.400Z,6.10
2023-04-06T20:47:56.320Z,6.20
2023-04-06T20:50:25.622Z,6.30
2023-04-06T20:52:54.453Z,6.30
2023-04-06T20:55:22.682Z,6.40
2023-04-06T20:57:52.940Z,6.30
2023-04-06T21:00:22.277Z,6.30
2023-04-06T21:02:50.809Z,6.50
2023-04-06T21:05:21.003Z,6.60
2023-04-06T21:07:49.396Z,6.60
2023-04-06T21:10:17.740Z,6.70
2023-04-06T21:12:46.068Z,6.70
2023-04-06T21:15:15.758Z,6.70
2023-04-06T21:17:44.509Z,6.70
2023-04-06T21:20:12.902Z,6.90
2023-04-06T21:22:41.194Z,7.00
2023-04-06T21:25:11.822Z,7.00
2023-04-06T21:27:41.037Z,7.10
2023-04-06T21:30:18.224Z,6.90
2023-04-06T21:32:47.455Z,7.00
2023-04-06T21:35:16.889Z,7.10
2023-04-06T21:37:48.674Z,7.20
2023-04-06T21:40:19.047Z,7.20
2023-04-06T21:42:47.908Z,7.30
2023-04-06T21:45:17.923Z,7.30
2023-04-06T21:47:49.359Z,7.20
2023-04-06T21:50:18.438Z,7.20
2023-04-06T21:52:46.657Z,7.40
2023-04-06T21:55:15.199Z,7.40
2023-04-06T21:57:44.436Z,7.40
2023-04-06T22:00:13.964Z,7.60
2023-04-06T22:02:44.376Z,7.70
2023-04-06T22:05:12.874Z,7.80
2023-04-06T22:07:41.362Z,7.80
2023-04-06T22:10:10.251Z,7.80
2023-04-06T22:12:40.006Z,7.90
2023-04-06T22:15:10.052Z,7.80
2023-04-06T22:17:38.677Z,7.60
2023-04-06T22:20:09.049Z,7.50
2023-04-06T22:22:37.277Z,7.60
2023-04-06T22:25:06.118Z,7.60
2023-04-06T22:27:34.351Z,7.60
2023-04-06T22:30:02.819Z,7.60
2023-04-06T22:32:31.735Z,7.50
2023-04-06T22:35:00.043Z,7.50
2023-04-06T22:37:29.833Z,7.40
2023-04-06T22:39:58.916Z,7.30
2023-04-06T22:42:27.426Z,7.30
2023-04-06T22:44:56.085Z,7.20
2023-04-06T22:47:28.000Z,7.20
2023-04-06T22:49:56.510Z,7.10
2023-04-06T22:52:25.111Z,7.10
2023-04-06T22:54:55.008Z,7.00
2023-04-06T22:57:23.541Z,7.00
2023-04-06T22:59:51.760Z,6.80
2023-04-06T23:02:20.448Z,6.80
2023-04-06T23:04:52.188Z,6.90
2023-04-06T23:07:20.728Z,6.80
2023-04-06T23:09:52.275Z,6.70
2023-04-06T23:12:23.559Z,6.80
2023-04-06T23:14:51.810Z,6.70
2023-04-06T23:17:20.455Z,6.70
2023-04-06T23:19:48.796Z,6.70
2023-04-06T23:22:17.371Z,6.70
2023-04-06T23:24:46.324Z,6.60
2023-04-06T23:27:14.558Z,6.60
2023-04-06T23:29:44.432Z,6.50
2023-04-06T23:32:13.025Z,6.60
2023-04-06T23:34:41.830Z,6.50
2023-04-06T23:37:10.137Z,6.50
2023-04-06T23:39:39.473Z,6.40
2023-04-06T23:42:08.499Z,6.40
2023-04-06T23:44:36.711Z,6.30
2023-04-06T23:47:06.619Z,6.30
2023-04-06T23:49:35.121Z,6.30
2023-04-06T23:52:03.925Z,6.30
2023-04-06T23:54:32.651Z,6.20
2023-04-06T23:57:04.529Z,6.10
2023-04-06T23:59:33.045Z,6.20
